Time;durP1;ratioP1;P1;durP2;ratioP2;P2;SDS_P1;SDS_P2;PMS_P1;PMS_P2;Temp;Humidity;BMP_temperature;BMP_pressure;BME280_temperature;BME280_humidity;BME280_pressure;Samples;Min_cycle;Max_cycle;Signal;HPM_P1;HPM_P2
2023/01/17 00:01:41;;;;;;;6.85;1.10;;;5.70;99.30;;;;;;5040244;28;20029;-74
2023/01/17 00:09:55;;;;;;;4.45;1.00;;;5.70;99.10;;;;;;5042314;28;20171;-73
2023/01/17 00:12:27;;;;;;;7.65;1.48;;;5.70;99.10;;;;;;5043987;28;20037;-73
2023/01/17 00:14:54;;;;;;;16.08;4.82;;;5.50;99.10;;;;;;5029530;28;20026;-74
2023/01/17 00:17:24;;;;;;;14.20;3.55;;;5.60;99.20;;;;;;5058105;28;20033;-73
2023/01/17 01:35:22;;;;;;;4.20;0.82;;;5.00;98.70;;;;;;5051588;28;20099;-74
2023/01/17 01:37:47;;;;;;;3.80;0.60;;;5.00;98.50;;;;;;5028060;28;20072;-73
2023/01/17 01:40:15;;;;;;;3.55;0.65;;;5.00;98.60;;;;;;5036239;28;20034;-73
2023/01/17 01:42:55;;;;;;;1.83;0.50;;;4.90;98.10;;;;;;5038681;28;20116;-74
2023/01/17 01:45:24;;;;;;;0.73;0.50;;;4.80;97.70;;;;;;5054671;28;20029;-74
2023/01/17 01:47:55;;;;;;;1.13;0.50;;;4.70;97.60;;;;;;5043392;28;20041;-74
2023/01/17 01:50:22;;;;;;;2.22;0.60;;;4.50;97.20;;;;;;5048871;28;20060;-73
2023/01/17 01:52:53;;;;;;;0.90;0.50;;;4.50;97.30;;;;;;5036899;28;20029;-74
2023/01/17 01:55:24;;;;;;;1.48;0.73;;;4.50;97.20;;;;;;5043589;28;20325;-73
2023/01/17 01:57:53;;;;;;;2.00;0.60;;;4.50;97.10;;;;;;5045729;28;20756;-74
2023/01/17 02:00:23;;;;;;;1.70;0.85;;;4.50;97.20;;;;;;5039431;28;20029;-76
2023/01/17 02:02:52;;;;;;;1.45;0.70;;;4.50;97.10;;;;;;5025270;28;20029;-73
2023/01/17 02:05:21;;;;;;;3.38;0.85;;;4.50;97.00;;;;;;5037143;28;20108;-73
2023/01/17 02:08:09;;;;;;;2.08;0.85;;;4.40;97.10;;;;;;5042026;28;20056;-74
2023/01/17 02:10:36;;;;;;;2.33;1.20;;;4.40;97.30;;;;;;5047664;28;20025;-74
2023/01/17 02:13:03;;;;;;;3.70;1.33;;;4.40;97.20;;;;;;5048462;28;20112;-74
2023/01/17 02:16:07;;;;;;;3.00;1.40;;;4.40;97.20;;;;;;5029449;28;20052;-72
2023/01/17 02:18:50;;;;;;;7.25;1.38;;;4.40;97.20;;;;;;5029190;28;20048;-73
2023/01/17 02:21:41;;;;;;;2.35;1.40;;;4.40;97.20;;;;;;5040800;28;20033;-73
2023/01/17 02:24:30;;;;;;;3.85;1.25;;;4.30;97.30;;;;;;5025654;28;20115;-74
2023/01/17 02:27:04;;;;;;;2.70;1.48;;;4.20;97.30;;;;;;5039893;28;20024;-74
2023/01/17 02:30:07;;;;;;;4.88;1.50;;;4.20;97.40;;;;;;5036077;28;20053;-73
2023/01/17 02:32:54;;;;;;;3.90;1.52;;;4.10;97.50;;;;;;5056125;28;20029;-74
2023/01/17 02:35:52;;;;;;;5.30;1.58;;;4.10;97.60;;;;;;5036362;28;20045;-73
2023/01/17 02:38:35;;;;;;;5.53;1.40;;;4.10;97.70;;;;;;4992470;28;20537;-75
2023/01/17 02:41:08;;;;;;;4.90;1.45;;;4.10;97.70;;;;;;5047120;28;20120;-74
2023/01/17 02:43:35;;;;;;;4.22;1.23;;;4.10;97.70;;;;;;5018515;28;20029;-74
2023/01/17 02:46:00;;;;;;;4.68;1.25;;;4.10;97.90;;;;;;5047329;28;20032;-73
2023/01/17 02:48:30;;;;;;;4.45;1.33;;;4.10;98.00;;;;;;5068434;28;20490;-74
2023/01/17 02:51:13;;;;;;;4.53;1.73;;;4.10;98.20;;;;;;5051378;28;20036;-73
2023/01/17 02:54:18;;;;;;;5.80;1.70;;;4.00;98.40;;;;;;5034599;28;20032;-74
2023/01/17 02:57:02;;;;;;;2.72;1.23;;;4.00;98.60;;;;;;5046363;28;20025;-74
2023/01/17 02:59:58;;;;;;;5.93;1.30;;;3.90;98.90;;;;;;5050790;28;20395;-74
2023/01/17 03:02:41;;;;;;;4.03;1.05;;;3.80;99.00;;;;;;5043397;28;20037;-73
2023/01/17 03:05:28;;;;;;;3.33;1.20;;;3.80;99.00;;;;;;5052951;28;20021;-73
2023/01/17 03:07:54;;;;;;;2.65;1.13;;;3.80;99.10;;;;;;5058725;28;20073;-73
2023/01/17 03:10:21;;;;;;;3.53;1.23;;;3.80;99.10;;;;;;5058307;28;20013;-73
2023/01/17 03:12:47;;;;;;;2.28;0.85;;;3.80;99.00;;;;;;5053249;28;20058;-74
2023/01/17 03:15:16;;;;;;;2.95;0.80;;;3.80;98.90;;;;;;5058254;28;20022;-72
2023/01/17 03:17:48;;;;;;;2.45;0.90;;;3.80;98.80;;;;;;5032014;28;20024;-73
2023/01/17 03:20:14;;;;;;;3.55;0.90;;;3.70;98.70;;;;;;5036203;28;20037;-73
2023/01/17 03:22:40;;;;;;;1.35;0.80;;;3.70;98.60;;;;;;5049112;28;20414;-72
2023/01/17 03:25:06;;;;;;;4.95;0.90;;;3.80;98.70;;;;;;5053256;28;20040;-73
2023/01/17 03:27:32;;;;;;;5.55;1.42;;;3.80;98.60;;;;;;5023341;28;20047;-72
2023/01/17 03:29:57;;;;;;;2.50;0.95;;;3.90;98.60;;;;;;5051466;28;20053;-73
2023/01/17 03:32:23;;;;;;;2.97;1.05;;;3.90;98.40;;;;;;5042368;28;20024;-73
2023/01/17 03:34:49;;;;;;;4.13;0.90;;;3.90;98.30;;;;;;5058540;28;20021;-74
2023/01/17 03:37:14;;;;;;;2.50;0.90;;;3.90;98.20;;;;;;5041683;28;20033;-74
2023/01/17 03:39:40;;;;;;;2.47;1.00;;;4.00;98.10;;;;;;5052775;28;20031;-73
2023/01/17 03:42:07;;;;;;;4.68;1.45;;;4.00;98.00;;;;;;5036315;28;20029;-73
2023/01/17 03:44:33;;;;;;;4.60;0.95;;;4.00;97.90;;;;;;5060812;28;20451;-73
2023/01/17 03:46:59;;;;;;;3.58;1.30;;;4.00;97.80;;;;;;5043971;28;20072;-73
2023/01/17 03:49:25;;;;;;;4.25;1.10;;;4.00;97.80;;;;;;5057081;28;20060;-73
2023/01/17 03:51:51;;;;;;;3.42;1.50;;;4.00;97.70;;;;;;5027053;28;20044;-73
2023/01/17 03:54:16;;;;;;;5.13;2.13;;;4.00;97.70;;;;;;5047857;28;20025;-73
2023/01/17 03:56:42;;;;;;;19.15;4.43;;;4.00;97.70;;;;;;5039599;28;20029;-73
2023/01/17 03:59:08;;;;;;;12.82;3.55;;;3.90;97.70;;;;;;5045928;28;20037;-73
2023/01/17 04:01:33;;;;;;;13.88;3.47;;;3.90;97.70;;;;;;5016869;28;20060;-73
2023/01/17 04:03:59;;;;;;;16.17;3.70;;;3.90;97.80;;;;;;5037373;28;20030;-73
2023/01/17 04:06:27;;;;;;;12.68;3.28;;;3.80;97.80;;;;;;5031843;28;20022;-74
2023/01/17 04:08:52;;;;;;;14.35;3.90;;;3.80;97.80;;;;;;5036734;28;20108;-73
2023/01/17 04:11:18;;;;;;;12.02;3.05;;;3.80;97.80;;;;;;5030724;28;20112;-73
2023/01/17 04:13:44;;;;;;;15.50;4.40;;;3.70;97.80;;;;;;5041755;28;20017;-73
2023/01/17 04:16:14;;;;;;;18.75;4.97;;;3.70;97.80;;;;;;5044113;28;20060;-74
2023/01/17 04:18:40;;;;;;;16.10;3.42;;;3.70;97.90;;;;;;5033581;28;20017;-74
2023/01/17 04:21:06;;;;;;;24.38;6.18;;;3.70;97.90;;;;;;5060695;28;20051;-74
2023/01/17 04:23:32;;;;;;;10.18;3.63;;;3.70;97.80;;;;;;5047365;28;20033;-72
2023/01/17 04:25:58;;;;;;;10.95;3.53;;;3.70;97.70;;;;;;5050633;28;20025;-73
2023/01/17 04:28:24;;;;;;;13.90;3.05;;;3.70;97.70;;;;;;5029444;28;20041;-73
2023/01/17 04:30:49;;;;;;;15.65;2.97;;;3.70;97.60;;;;;;5038642;28;20140;-75
2023/01/17 04:33:15;;;;;;;14.63;3.33;;;3.70;97.60;;;;;;5043062;28;20026;-75
2023/01/17 04:35:40;;;;;;;21.90;4.93;;;3.70;97.60;;;;;;5045872;28;20045;-74
2023/01/17 04:38:06;;;;;;;16.17;4.13;;;3.70;97.60;;;;;;5032898;28;20534;-74
2023/01/17 04:40:32;;;;;;;13.55;2.58;;;3.60;97.70;;;;;;5040416;28;20101;-73
2023/01/17 04:42:58;;;;;;;15.55;4.00;;;3.70;97.80;;;;;;5032048;28;20490;-73
2023/01/17 04:45:24;;;;;;;12.90;3.03;;;3.60;97.80;;;;;;5039274;28;20277;-74
2023/01/17 04:47:49;;;;;;;11.02;3.70;;;3.60;97.90;;;;;;5038039;28;20467;-74
2023/01/17 04:50:15;;;;;;;10.82;2.28;;;3.60;98.20;;;;;;5036079;28;20029;-74
2023/01/17 04:52:41;;;;;;;12.38;3.03;;;3.70;98.00;;;;;;5028927;28;20064;-74
2023/01/17 04:55:07;;;;;;;15.05;3.20;;;3.60;98.10;;;;;;5037729;28;20045;-72
2023/01/17 04:57:33;;;;;;;14.05;3.45;;;3.60;98.20;;;;;;5064434;28;20166;-73
2023/01/17 04:59:58;;;;;;;13.70;4.00;;;3.60;98.20;;;;;;5059723;28;20472;-72
2023/01/17 05:02:24;;;;;;;20.00;5.85;;;3.60;98.30;;;;;;5048919;28;21040;-73
2023/01/17 05:04:50;;;;;;;11.77;3.85;;;3.70;98.40;;;;;;5032152;28;20029;-74
2023/01/17 05:07:15;;;;;;;10.57;4.03;;;3.60;98.40;;;;;;5053100;28;20106;-73
2023/01/17 05:09:42;;;;;;;12.90;3.60;;;3.60;98.50;;;;;;5035949;28;20431;-73
2023/01/17 05:12:09;;;;;;;13.52;3.75;;;3.60;98.60;;;;;;5050611;28;20014;-74
2023/01/17 05:14:35;;;;;;;16.23;4.88;;;3.60;98.70;;;;;;5015101;28;20387;-74
2023/01/17 05:17:01;;;;;;;14.25;3.85;;;3.50;98.90;;;;;;5043169;28;20029;-74
2023/01/17 05:19:27;;;;;;;11.75;4.40;;;3.50;99.00;;;;;;5034705;28;20487;-75
2023/01/17 05:21:53;;;;;;;10.82;3.58;;;3.50;99.00;;;;;;5048190;28;20021;-75
2023/01/17 05:24:19;;;;;;;10.05;4.70;;;3.50;99.00;;;;;;5035815;28;20044;-75
2023/01/17 05:26:53;;;;;;;19.90;5.75;;;3.40;99.10;;;;;;5046561;28;20036;-75
2023/01/17 05:29:19;;;;;;;13.07;3.88;;;3.50;99.10;;;;;;5042577;28;20060;-75
2023/01/17 05:31:45;;;;;;;9.75;2.75;;;3.50;99.10;;;;;;5035255;28;20025;-74
2023/01/17 05:34:11;;;;;;;14.05;4.60;;;3.40;99.10;;;;;;5031695;28;20052;-74
2023/01/17 05:36:36;;;;;;;8.77;3.10;;;3.50;99.00;;;;;;5033869;28;20064;-74
2023/01/17 05:39:02;;;;;;;9.20;3.20;;;3.50;98.90;;;;;;5039715;28;20033;-75
2023/01/17 05:41:28;;;;;;;9.05;3.55;;;3.60;98.80;;;;;;5042929;28;20414;-74
2023/01/17 05:43:53;;;;;;;10.30;3.70;;;3.60;98.80;;;;;;5045021;28;20035;-74
2023/01/17 05:46:19;;;;;;;12.40;2.97;;;3.50;98.80;;;;;;5028605;28;20025;-74
2023/01/17 05:48:46;;;;;;;10.32;3.20;;;3.60;98.80;;;;;;5042381;28;20036;-74
2023/01/17 05:51:11;;;;;;;8.98;4.18;;;3.50;98.70;;;;;;5051141;28;20079;-73
2023/01/17 05:53:37;;;;;;;7.78;3.78;;;3.50;98.80;;;;;;5044496;28;20033;-74
2023/01/17 05:56:03;;;;;;;9.95;3.60;;;3.50;98.90;;;;;;5038276;28;20032;-74
2023/01/17 05:58:29;;;;;;;9.35;3.22;;;3.40;98.80;;;;;;5041761;28;20395;-74
2023/01/17 06:00:55;;;;;;;14.18;4.32;;;3.40;98.80;;;;;;5037086;28;20149;-74
2023/01/17 06:03:20;;;;;;;10.80;3.60;;;3.50;98.80;;;;;;5040714;28;20438;-73
2023/01/17 06:05:46;;;;;;;11.57;3.20;;;3.50;98.80;;;;;;5025811;28;20551;-73
2023/01/17 06:08:15;;;;;;;10.18;3.50;;;3.50;98.70;;;;;;5025532;28;20049;-74
2023/01/17 06:10:40;;;;;;;8.32;3.28;;;3.50;98.60;;;;;;5029615;28;20034;-74
2023/01/17 06:13:13;;;;;;;9.63;2.80;;;3.60;98.60;;;;;;5039743;28;20040;-74
2023/01/17 06:15:38;;;;;;;9.70;3.00;;;3.60;98.40;;;;;;5055067;28;20472;-74
2023/01/17 06:18:09;;;;;;;10.57;2.47;;;3.60;98.40;;;;;;5040369;28;20039;-75
2023/01/17 06:20:35;;;;;;;7.72;2.30;;;3.60;98.40;;;;;;5065570;28;20036;-74
2023/01/17 06:23:03;;;;;;;9.18;2.33;;;3.60;98.30;;;;;;5040882;28;20067;-75
2023/01/17 06:25:39;;;;;;;8.75;3.03;;;3.60;98.30;;;;;;5053395;28;20057;-74
2023/01/17 06:28:06;;;;;;;6.50;2.65;;;3.50;98.30;;;;;;5043794;28;20045;-74
2023/01/17 06:30:32;;;;;;;8.13;2.58;;;3.50;98.20;;;;;;5044598;28;20056;-75
2023/01/17 06:32:57;;;;;;;7.22;2.50;;;3.50;98.20;;;;;;5026437;28;20024;-75
2023/01/17 06:35:23;;;;;;;8.35;2.95;;;3.40;98.10;;;;;;5042073;28;20068;-74
2023/01/17 06:37:54;;;;;;;13.30;3.72;;;3.40;98.10;;;;;;5038942;28;20025;-75
2023/01/17 06:40:21;;;;;;;10.43;2.90;;;3.40;98.10;;;;;;5047771;28;20060;-76
2023/01/17 06:42:47;;;;;;;7.78;2.92;;;3.40;98.10;;;;;;5040269;28;20021;-75
2023/01/17 06:45:13;;;;;;;9.57;3.30;;;3.40;98.00;;;;;;5038792;28;20040;-75
2023/01/17 06:47:39;;;;;;;11.13;2.53;;;3.40;98.00;;;;;;5045121;28;20033;-75
2023/01/17 06:50:07;;;;;;;7.78;2.80;;;3.40;98.00;;;;;;5039064;28;20021;-75
2023/01/17 06:52:33;;;;;;;9.75;2.90;;;3.40;98.10;;;;;;5041398;28;20032;-74
2023/01/17 06:54:59;;;;;;;14.93;2.97;;;3.40;98.10;;;;;;5041285;28;20034;-75
2023/01/17 06:57:24;;;;;;;16.13;3.70;;;3.40;98.20;;;;;;5052325;28;20033;-75
2023/01/17 06:59:50;;;;;;;11.15;2.63;;;3.40;98.10;;;;;;5046913;28;20064;-75
2023/01/17 07:02:16;;;;;;;11.25;3.17;;;3.40;98.10;;;;;;5039656;28;20025;-76
2023/01/17 07:04:41;;;;;;;11.35;3.00;;;3.50;98.10;;;;;;5039794;28;20452;-76
2023/01/17 07:07:07;;;;;;;20.13;4.18;;;3.50;98.00;;;;;;5039368;28;20051;-76
2023/01/17 07:09:34;;;;;;;13.43;3.50;;;3.50;98.00;;;;;;5040652;28;20029;-76
2023/01/17 07:12:00;;;;;;;11.13;3.15;;;3.50;97.90;;;;;;5023961;28;20083;-75
2023/01/17 07:14:30;;;;;;;9.63;3.58;;;3.50;97.90;;;;;;5022138;28;20096;-75
2023/01/17 07:16:56;;;;;;;10.50;3.60;;;3.50;97.90;;;;;;5034043;28;20037;-76
2023/01/17 07:19:22;;;;;;;13.85;4.32;;;3.50;97.90;;;;;;5034081;28;20033;-76
2023/01/17 07:21:52;;;;;;;15.55;6.72;;;3.50;97.90;;;;;;5053923;28;20077;-75
2023/01/17 07:24:19;;;;;;;17.05;6.50;;;3.50;97.90;;;;;;5034746;28;20115;-75
2023/01/17 07:26:51;;;;;;;23.77;9.30;;;3.50;97.90;;;;;;5022708;28;20038;-76
2023/01/17 07:29:17;;;;;;;17.48;7.00;;;3.50;98.00;;;;;;5035971;28;20112;-75
2023/01/17 07:31:43;;;;;;;14.52;5.55;;;3.50;98.10;;;;;;5016756;28;20716;-76
2023/01/17 07:34:09;;;;;;;14.27;5.35;;;3.50;98.10;;;;;;5033144;28;20025;-76
2023/01/17 07:36:35;;;;;;;14.32;6.63;;;3.50;98.10;;;;;;5024899;28;20037;-75
2023/01/17 07:39:02;;;;;;;14.15;5.05;;;3.60;98.20;;;;;;5040466;28;20082;-75
2023/01/17 07:41:31;;;;;;;14.45;4.55;;;3.60;98.10;;;;;;5048170;28;20036;-75
2023/01/17 07:43:57;;;;;;;16.40;4.90;;;3.60;98.00;;;;;;5035502;28;20101;-75
2023/01/17 07:46:23;;;;;;;13.02;4.80;;;3.60;98.00;;;;;;5036049;28;20796;-75
2023/01/17 07:48:49;;;;;;;11.10;4.47;;;3.60;98.00;;;;;;5045390;28;20096;-75
2023/01/17 07:51:16;;;;;;;12.57;5.25;;;3.60;98.10;;;;;;5046883;28;20028;-76
2023/01/17 07:53:42;;;;;;;14.77;5.82;;;3.60;98.00;;;;;;5038490;28;20069;-75
2023/01/17 07:56:08;;;;;;;13.10;4.45;;;3.70;98.10;;;;;;5042972;28;20733;-75
2023/01/17 07:58:34;;;;;;;10.98;4.88;;;3.70;98.10;;;;;;5042568;28;20892;-75
2023/01/17 08:01:05;;;;;;;15.18;5.28;;;3.70;98.20;;;;;;5035651;28;20112;-73
2023/01/17 08:03:34;;;;;;;15.50;5.45;;;3.60;98.10;;;;;;5041634;28;20022;-75
2023/01/17 08:06:01;;;;;;;16.25;5.53;;;3.60;98.10;;;;;;5036928;28;20036;-75
2023/01/17 08:08:27;;;;;;;11.25;4.60;;;3.60;98.00;;;;;;5043346;28;20053;-74
2023/01/17 08:10:54;;;;;;;12.60;5.57;;;3.60;98.00;;;;;;5039155;28;20029;-77
2023/01/17 08:13:22;;;;;;;10.15;4.40;;;3.60;98.00;;;;;;5043119;28;20065;-74
2023/01/17 08:15:49;;;;;;;17.55;6.47;;;3.60;98.10;;;;;;5045657;28;20078;-74
2023/01/17 08:18:15;;;;;;;9.77;5.25;;;3.60;98.10;;;;;;5018112;28;20044;-76
2023/01/17 08:20:44;;;;;;;17.85;6.53;;;3.70;98.20;;;;;;5035911;28;20021;-74
2023/01/17 08:23:10;;;;;;;16.42;5.63;;;3.90;98.20;;;;;;5037689;28;20066;-74
2023/01/17 08:25:37;;;;;;;17.08;6.22;;;4.00;98.10;;;;;;5020217;28;20109;-74
2023/01/17 08:28:03;;;;;;;13.10;5.45;;;4.30;97.70;;;;;;5039256;28;20044;-74
2023/01/17 08:30:28;;;;;;;16.38;6.28;;;4.50;97.40;;;;;;5033831;28;20080;-74
2023/01/17 08:32:55;;;;;;;21.77;8.35;;;4.70;96.70;;;;;;5042570;28;20387;-74
2023/01/17 08:35:21;;;;;;;14.52;6.60;;;4.90;96.10;;;;;;5043790;28;20119;-73
2023/01/17 08:37:51;;;;;;;20.15;8.48;;;5.00;95.30;;;;;;5040870;28;20108;-74
2023/01/17 08:40:18;;;;;;;16.17;8.13;;;5.10;94.80;;;;;;5050271;28;20029;-74
2023/01/17 08:42:52;;;;;;;20.58;7.93;;;5.10;94.60;;;;;;5034190;28;20043;-75
2023/01/17 08:45:17;;;;;;;14.75;7.43;;;5.10;94.60;;;;;;5037127;28;20025;-74
2023/01/17 08:47:43;;;;;;;18.73;8.35;;;5.00;94.60;;;;;;5020190;28;20372;-74
2023/01/17 08:50:09;;;;;;;18.83;8.35;;;4.90;94.60;;;;;;5043906;28;20044;-74
2023/01/17 08:52:35;;;;;;;17.20;9.32;;;4.80;94.60;;;;;;5029308;28;20040;-73
2023/01/17 08:55:00;;;;;;;17.50;8.38;;;4.60;94.70;;;;;;5030067;28;20017;-75
2023/01/17 08:57:26;;;;;;;12.35;7.55;;;4.60;94.90;;;;;;5037019;28;20116;-75
2023/01/17 08:59:52;;;;;;;18.55;10.82;;;4.50;95.40;;;;;;5055268;28;20017;-73
2023/01/17 09:02:19;;;;;;;26.55;13.70;;;4.40;95.70;;;;;;5035273;28;20029;-75
2023/01/17 09:04:46;;;;;;;18.30;11.40;;;4.50;96.00;;;;;;5031566;28;20851;-73
2023/01/17 09:07:12;;;;;;;17.52;10.32;;;4.50;95.80;;;;;;5013151;28;20045;-73
2023/01/17 09:09:38;;;;;;;21.17;11.38;;;4.50;96.00;;;;;;5045954;28;20483;-72
2023/01/17 09:12:04;;;;;;;18.05;11.40;;;4.50;95.60;;;;;;5033450;28;20029;-73
2023/01/17 09:14:29;;;;;;;17.08;9.10;;;4.60;95.20;;;;;;5053456;28;20025;-73
2023/01/17 09:16:55;;;;;;;20.80;11.70;;;4.60;95.20;;;;;;5023881;28;20094;-73
2023/01/17 09:19:21;;;;;;;22.65;14.00;;;4.60;95.20;;;;;;5051606;28;20021;-73
2023/01/17 09:21:46;;;;;;;23.25;15.98;;;4.70;95.10;;;;;;5015896;28;21244;-72
2023/01/17 09:24:12;;;;;;;19.98;12.98;;;4.80;94.80;;;;;;5043167;28;20017;-73
2023/01/17 09:26:39;;;;;;;21.65;13.32;;;4.90;94.80;;;;;;5047920;28;20020;-72
2023/01/17 09:29:04;;;;;;;23.63;12.93;;;4.90;94.80;;;;;;5035462;28;20044;-73
2023/01/17 09:31:30;;;;;;;25.02;13.52;;;5.00;94.90;;;;;;5043408;28;20075;-73
2023/01/17 09:33:57;;;;;;;18.17;11.00;;;5.00;94.50;;;;;;5030574;28;20711;-72
2023/01/17 09:36:27;;;;;;;17.73;9.93;;;5.20;94.40;;;;;;5055123;28;20020;-73
2023/01/17 09:38:57;;;;;;;19.88;10.27;;;5.30;94.20;;;;;;5029478;28;20396;-73
2023/01/17 09:41:31;;;;;;;15.80;10.38;;;5.40;93.90;;;;;;5043581;28;20534;-74
2023/01/17 09:44:34;;;;;;;18.70;10.70;;;5.60;94.00;;;;;;5027341;28;20029;-73
2023/01/17 09:47:11;;;;;;;18.30;9.43;;;5.90;93.50;;;;;;5037925;28;20514;-74
2023/01/17 09:49:42;;;;;;;18.63;9.60;;;6.10;92.80;;;;;;5018827;28;20020;-72
2023/01/17 09:52:12;;;;;;;18.40;10.23;;;6.10;92.50;;;;;;5065217;28;20021;-73
2023/01/17 09:54:45;;;;;;;17.50;10.27;;;6.10;92.00;;;;;;5039312;28;20020;-72
2023/01/17 09:57:47;;;;;;;16.35;9.88;;;6.00;92.00;;;;;;5059257;28;20076;-73
2023/01/17 10:00:31;;;;;;;20.75;9.95;;;6.00;92.40;;;;;;5040616;28;20782;-73
2023/01/17 10:03:30;;;;;;;15.75;10.00;;;6.10;92.90;;;;;;5045516;28;20029;-73
2023/01/17 10:06:12;;;;;;;17.95;11.23;;;6.20;92.00;;;;;;5040403;28;20024;-73
2023/01/17 10:09:02;;;;;;;20.10;9.57;;;6.30;91.50;;;;;;5020034;28;20096;-72
2023/01/17 10:11:43;;;;;;;;;;;6.30;91.70;;;;;;5038985;28;20036;-73
2023/01/17 10:14:23;;;;;;;20.90;10.10;;;6.30;91.30;;;;;;5042823;28;19921;-77
2023/01/17 10:17:09;;;;;;;14.38;9.52;;;6.10;91.20;;;;;;5022091;28;20026;-77
2023/01/17 10:19:55;;;;;;;18.75;9.98;;;6.10;91.30;;;;;;5042628;28;20025;-73
2023/01/17 10:23:17;;;;;;;15.05;9.90;;;6.00;91.70;;;;;;5050605;28;20021;-72
2023/01/17 10:25:54;;;;;;;17.17;9.63;;;5.90;91.60;;;;;;4963201;28;20038;-73
2023/01/17 10:28:32;;;;;;;17.98;10.52;;;5.80;91.60;;;;;;4953036;28;20078;-73
2023/01/17 10:31:21;;;;;;;16.85;9.90;;;5.80;92.00;;;;;;5014992;28;20098;-72
2023/01/17 10:33:51;;;;;;;18.33;9.57;;;5.80;92.00;;;;;;5062321;28;20024;-73
2023/01/17 10:36:31;;;;;;;19.35;9.10;;;5.80;92.20;;;;;;5036478;28;20147;-73
2023/01/17 10:39:01;;;;;;;16.58;7.90;;;5.80;92.10;;;;;;5050032;28;20077;-73
2023/01/17 10:41:36;;;;;;;16.13;8.32;;;5.90;92.40;;;;;;5050264;28;20009;-72
2023/01/17 10:44:07;;;;;;;14.73;8.57;;;6.00;92.20;;;;;;5038840;28;20029;-74
2023/01/17 10:46:40;;;;;;;16.27;7.95;;;6.20;92.30;;;;;;5040615;28;20028;-72
2023/01/17 10:49:15;;;;;;;13.30;8.65;;;6.40;91.70;;;;;;5042042;28;20024;-72
2023/01/17 10:51:50;;;;;;;12.95;8.32;;;6.50;91.40;;;;;;5032685;28;20121;-74
2023/01/17 10:54:43;;;;;;;15.88;7.55;;;6.50;91.20;;;;;;5043876;28;20081;-74
2023/01/17 10:57:17;;;;;;;14.95;7.97;;;6.50;91.10;;;;;;5018038;28;20039;-73
2023/01/17 10:59:44;;;;;;;14.95;8.32;;;6.60;91.00;;;;;;5037566;28;20764;-73
2023/01/17 11:02:41;;;;;;;13.95;7.35;;;6.50;90.60;;;;;;5039411;28;20025;-72
2023/01/17 11:05:20;;;;;;;12.55;7.28;;;6.50;90.60;;;;;;5033208;28;20056;-73
2023/01/17 11:08:06;;;;;;;17.30;7.65;;;6.50;90.60;;;;;;5046109;28;20053;-71
2023/01/17 11:10:45;;;;;;;19.20;8.57;;;6.50;90.80;;;;;;5057429;28;20024;-73
2023/01/17 11:13:34;;;;;;;18.98;7.45;;;6.50;90.50;;;;;;5049062;28;20394;-72
2023/01/17 11:16:16;;;;;;;17.20;7.13;;;6.40;90.50;;;;;;5037987;28;20029;-73
2023/01/17 11:18:44;;;;;;;17.52;8.13;;;6.40;90.70;;;;;;5052236;28;20788;-72
2023/01/17 11:21:13;;;;;;;16.08;7.90;;;6.40;90.60;;;;;;5034262;28;20017;-72
2023/01/17 11:23:44;;;;;;;11.73;7.53;;;6.30;90.60;;;;;;5052553;28;20037;-73
2023/01/17 11:26:26;;;;;;;19.30;9.85;;;6.30;90.80;;;;;;5034927;28;20033;-72
2023/01/17 11:29:11;;;;;;;15.07;7.85;;;6.30;91.00;;;;;;5041036;28;20064;-73
2023/01/17 11:31:38;;;;;;;12.90;7.25;;;6.40;91.10;;;;;;5038334;28;20041;-73
2023/01/17 11:34:25;;;;;;;12.70;6.60;;;6.50;91.20;;;;;;5052714;28;20136;-73
2023/01/17 11:37:18;;;;;;;11.48;6.50;;;6.70;91.30;;;;;;5059720;28;20030;-73
2023/01/17 11:39:47;;;;;;;11.25;7.13;;;7.20;90.60;;;;;;5056817;28;20135;-73
2023/01/17 11:43:02;;;;;;;12.70;5.97;;;7.70;89.50;;;;;;5055381;28;20021;-73
2023/01/17 11:45:29;;;;;;;18.95;12.98;;;8.10;85.50;;;;;;4974522;28;20027;-74
2023/01/17 11:48:11;;;;;;;11.55;5.07;;;8.20;85.60;;;;;;4986580;28;20048;-73
2023/01/17 11:50:57;;;;;;;12.48;4.97;;;8.70;84.10;;;;;;5025511;28;20045;-73
2023/01/17 11:53:35;;;;;;;8.45;4.97;;;9.00;80.80;;;;;;5041813;28;20031;-73
2023/01/17 11:56:08;;;;;;;12.52;5.85;;;9.10;80.10;;;;;;5044601;28;20548;-73
2023/01/17 11:58:39;;;;;;;9.77;4.80;;;9.10;76.60;;;;;;5031735;28;20040;-74
2023/01/17 12:01:24;;;;;;;12.65;5.10;;;8.90;77.90;;;;;;5038324;28;20029;-73
2023/01/17 12:04:00;;;;;;;9.68;5.22;;;8.90;78.30;;;;;;5038389;28;20414;-72
2023/01/17 12:06:40;;;;;;;9.68;4.80;;;8.90;78.40;;;;;;5047543;28;20027;-74
2023/01/17 12:09:21;;;;;;;10.55;5.13;;;8.90;77.90;;;;;;5015768;28;20045;-74
2023/01/17 12:15:29;;;;;;;9.07;4.13;;;8.90;75.20;;;;;;5042955;28;20082;-73
2023/01/17 12:18:04;;;;;;;11.70;4.82;;;8.60;74.90;;;;;;5040825;28;20013;-73
2023/01/17 12:20:43;;;;;;;13.13;5.70;;;8.50;76.20;;;;;;5036313;28;20025;-72
2023/01/17 12:23:18;;;;;;;10.02;4.65;;;8.50;77.70;;;;;;5035005;28;20406;-72
2023/01/17 12:26:08;;;;;;;6.65;3.80;;;8.70;77.90;;;;;;5038884;28;20029;-73
2023/01/17 12:28:45;;;;;;;15.68;4.55;;;9.40;77.10;;;;;;5036097;28;20055;-73
2023/01/17 12:31:24;;;;;;;9.40;3.92;;;9.90;75.20;;;;;;5048816;28;20079;-74
2023/01/17 12:33:54;;;;;;;9.27;4.18;;;10.40;71.90;;;;;;5034100;28;20033;-71
2023/01/17 12:36:34;;;;;;;10.23;3.53;;;10.80;68.80;;;;;;5050030;28;20036;-71
2023/01/17 12:39:08;;;;;;;10.02;4.05;;;11.30;67.20;;;;;;5051763;28;20028;-71
2023/01/17 12:42:00;;;;;;;9.55;4.15;;;11.60;65.10;;;;;;5039395;28;20542;-72
2023/01/17 12:44:50;;;;;;;8.10;3.60;;;12.00;63.20;;;;;;5020206;28;20040;-70
2023/01/17 12:47:18;;;;;;;8.95;3.42;;;12.40;63.40;;;;;;5025010;28;20052;-71
2023/01/17 12:50:02;;;;;;;6.78;3.17;;;12.70;61.10;;;;;;5028780;28;20035;-72
2023/01/17 12:52:46;;;;;;;7.88;2.55;;;12.80;59.80;;;;;;5039659;28;20029;-72
2023/01/17 12:55:22;;;;;;;6.82;3.10;;;12.80;57.90;;;;;;5027917;28;20089;-71
2023/01/17 12:57:55;;;;;;;7.90;3.40;;;12.80;57.90;;;;;;5038449;28;20061;-71
2023/01/17 13:00:25;;;;;;;8.93;3.50;;;12.90;57.90;;;;;;5036116;28;20057;-71
2023/01/17 13:03:03;;;;;;;7.05;2.42;;;13.00;59.00;;;;;;5040350;28;20018;-71
2023/01/17 13:05:37;;;;;;;8.60;4.03;;;13.20;60.30;;;;;;5038287;28;20048;-70
2023/01/17 13:08:19;;;;;;;9.10;3.50;;;13.20;58.00;;;;;;5037433;28;20072;-70
2023/01/17 13:11:05;;;;;;;30.25;15.18;;;13.20;55.70;;;;;;5033114;28;20032;-70
2023/01/17 13:13:31;;;;;;;9.85;4.70;;;13.10;57.10;;;;;;5038496;28;20450;-72
2023/01/17 13:16:12;;;;;;;10.27;3.65;;;13.30;57.00;;;;;;5034753;28;20208;-71
2023/01/17 13:18:45;;;;;;;5.00;2.55;;;13.50;55.80;;;;;;5038139;28;20032;-69
2023/01/17 13:21:32;;;;;;;7.43;2.80;;;13.60;55.80;;;;;;5032217;28;20040;-71
2023/01/17 13:23:58;;;;;;;7.03;2.72;;;13.60;54.50;;;;;;5035470;28;20112;-71
2023/01/17 13:26:48;;;;;;;6.90;3.13;;;13.40;54.20;;;;;;5036854;28;20122;-71
2023/01/17 13:29:20;;;;;;;5.55;2.45;;;13.40;53.60;;;;;;5040422;28;20144;-71
2023/01/17 13:32:10;;;;;;;8.90;2.53;;;13.20;53.00;;;;;;5033706;28;20538;-71
2023/01/17 13:34:51;;;;;;;;;;;13.20;53.80;;;;;;5038291;28;20507;-72
2023/01/17 13:37:51;;;;;;;8.07;2.83;;;13.50;53.20;;;;;;5033643;28;19916;-71
2023/01/17 13:40:49;;;;;;;8.02;2.78;;;13.80;56.80;;;;;;5011434;28;20091;-71
2023/01/17 13:43:40;;;;;;;4.50;2.08;;;14.10;54.10;;;;;;5018602;28;20410;-72
2023/01/17 13:46:06;;;;;;;9.25;3.00;;;14.10;51.60;;;;;;5037217;28;20130;-69
2023/01/17 13:48:39;;;;;;;9.45;2.78;;;14.20;50.40;;;;;;5035248;28;20072;-70
2023/01/17 13:51:09;;;;;;;7.28;2.40;;;14.10;48.80;;;;;;5033646;28;20037;-70
2023/01/17 13:53:38;;;;;;;7.43;2.53;;;13.90;49.00;;;;;;5035575;28;20079;-70
2023/01/17 13:56:17;;;;;;;8.70;2.35;;;14.00;50.70;;;;;;5035441;28;20037;-70
2023/01/17 13:58:57;;;;;;;6.30;2.23;;;14.00;49.40;;;;;;5036953;28;20040;-73
2023/01/17 14:01:22;;;;;;;4.97;1.95;;;14.00;51.40;;;;;;5036254;28;20021;-72
2023/01/17 14:03:48;;;;;;;4.95;1.85;;;14.10;51.40;;;;;;5035118;28;20719;-71
2023/01/17 14:06:40;;;;;;;5.45;2.05;;;14.20;49.60;;;;;;5032082;28;20051;-71
2023/01/17 14:09:20;;;;;;;6.72;2.33;;;14.30;49.20;;;;;;5035690;28;20040;-71
2023/01/17 14:12:05;;;;;;;6.75;2.13;;;14.30;46.70;;;;;;5036109;28;20542;-72
2023/01/17 14:14:40;;;;;;;7.25;1.67;;;14.40;47.80;;;;;;5021166;28;20025;-71
2023/01/17 14:17:15;;;;;;;3.90;1.67;;;14.40;48.20;;;;;;5032616;28;20196;-71
2023/01/17 14:19:46;;;;;;;5.63;1.63;;;14.50;47.50;;;;;;5035356;28;20111;-71
2023/01/17 14:22:19;;;;;;;7.63;2.97;;;14.50;50.30;;;;;;5033488;28;20109;-70
2023/01/17 14:25:04;;;;;;;4.65;1.70;;;14.50;46.60;;;;;;5038404;28;20028;-72
2023/01/17 14:27:35;;;;;;;5.13;1.50;;;14.50;45.40;;;;;;5031310;28;20195;-71
2023/01/17 14:30:15;;;;;;;3.75;1.75;;;14.50;45.60;;;;;;5036513;28;20052;-70
2023/01/17 14:32:41;;;;;;;5.85;1.95;;;14.30;46.20;;;;;;5030667;28;20091;-71
2023/01/17 14:35:20;;;;;;;6.78;1.85;;;13.90;45.20;;;;;;5036801;28;20029;-71
2023/01/17 14:37:52;;;;;;;4.28;1.67;;;13.60;46.80;;;;;;5024328;28;20095;-70
2023/01/17 14:40:21;;;;;;;5.97;1.90;;;13.20;47.20;;;;;;5040366;28;20029;-71
2023/01/17 14:42:50;;;;;;;5.95;2.25;;;13.20;47.70;;;;;;5039594;28;20014;-71